AcasaAcasa  InregistrareInregistrare  Conectare  

Distribuiți | 
 

 YR-5276 aterizat forțat langa Onești

Vezi subiectul anterior Vezi subiectul urmator In jos 
AutorMesaj
Balki
Moderator
avatar

Numarul mesajelor : 1682
Varsta : 38
Localizare : Bucuresti
Data de inscriere : 24/10/2008

MesajSubiect: YR-5276 aterizat forțat langa Onești   Vin 03 Apr 2015, 10:04

Titlu: Incident aviatic lângă Onești
Sursa: Digi24
Autor: Digi24
Data: 02.04.15

Digi24 a scris:
Pilotul unui avion de mici dimensiuni a luat decizia să aterizeze forțat, speriat de rafalele puternice de vânt. Avionul a fost distrus în totalitate, după ce a acroșat un stâlp. Pilotul este însă teafăr.

mai multe detalii aici:
http://www.digi24.ro/Stiri/Digi24/Actualitate/Stiri/Incident+aviatic+Bacau+avion+distrus+aterizare+fortata+vant
Sus In jos
http://panourituristice.ro/
lrbc
Fotograf
avatar

Numarul mesajelor : 1817
Varsta : 103
Localizare : Bacău
Data de inscriere : 08/05/2009

MesajSubiect: Re: YR-5276 aterizat forțat langa Onești   Vin 03 Apr 2015, 11:58

METAR LRBC 021300Z 26014G24KT 230V290 9999 SCT060 12/M05 Q1007=

METAR LRBC 021330Z 26020KT 9999 FEW065 12/M04 Q1007=

METAR LRBC 021400Z 26020KT 9999 FEW065 11/M05 Q1007=

METAR LRBC 021430Z 26017KT 9999 FEW065 11/M05 Q1007=

Numai bine de zbor cu ULM.
Sus In jos
eugen
Membru activ
avatar

Numarul mesajelor : 3371
Varsta : 43
Localizare : Arad, LRAR
Data de inscriere : 30/04/2008

MesajSubiect: Re: YR-5276 aterizat forțat langa Onești   Sam 04 Apr 2015, 15:24

lrbc a scris:

Numai bine de zbor cu ULM.

Exact!
Sus In jos
Continut sponsorizat




MesajSubiect: Re: YR-5276 aterizat forțat langa Onești   

Sus In jos
 
YR-5276 aterizat forțat langa Onești
Vezi subiectul anterior Vezi subiectul urmator Sus 
Pagina 1 din 1

Permisiunile acestui forum:Nu puteti raspunde la subiectele acestui forum
ROMANIAN SPOTTERS :: DIVERSE/OFF-TOPIC :: Stiri din aviatie - Aviation News-
Mergi direct la: